SKW1114 KAUS-KDFW
Flight info
| Callsign | SKW1114 |
|---|---|
| Flight time | 0h 38m |
| Altitude | 28000 |
| Route | ELOEL3 FORSS GUTZZ BOOVE7 |
| Aircraft | A320/M-SDE3FGHIRWY/LB1 |
Departure
| Time | 2026-05-04 22:57 |
|---|---|
| Airport | Austin Bergstrom International Airport (KAUS) |
Arrival
| Time | 2026-05-04 23:36 |
|---|---|
| Airport | Dallas Fort Worth International Airport (KDFW) |
| Time | Latitude | Longitude | Altitude | Speed | Heading |
|---|---|---|---|---|---|
| 2026-05-04 22:53 | 30.20329 | -97.67347 | 527 ft | 37 kts | 359° |
| 2026-05-04 22:54 | 30.20603 | -97.67349 | 527 ft | 41 kts | 359° |
| 2026-05-04 22:54 | 30.20878 | -97.67425 | 527 ft | 43 kts | 343° |
| 2026-05-04 22:54 | 30.21180 | -97.67514 | 527 ft | 40 kts | 346° |
| 2026-05-04 22:54 | 30.21401 | -97.67625 | 527 ft | 30 kts | 295° |
| 2026-05-04 22:55 | 30.21535 | -97.67652 | 527 ft | 17 kts | 80° |
| 2026-05-04 22:55 | 30.21502 | -97.67669 | 527 ft | 9 kts | 237° |
| 2026-05-04 22:55 | 30.21448 | -97.67746 | 527 ft | 16 kts | 226° |
| 2026-05-04 22:55 | 30.21355 | -97.67848 | 526 ft | 21 kts | 224° |
| 2026-05-04 22:56 | 30.21252 | -97.67935 | 526 ft | 6 kts | 173° |
| 2026-05-04 22:56 | 30.21239 | -97.67936 | 526 ft | 0 kts | 181° |
| 2026-05-04 22:56 | 30.21202 | -97.67935 | 526 ft | 30 kts | 178° |
| 2026-05-04 22:57 | 30.20733 | -97.67919 | 529 ft | 101 kts | 179° |
| 2026-05-04 22:57 | 30.19833 | -97.67894 | 530 ft | 154 kts | 179° |
| 2026-05-04 22:57 | 30.18707 | -97.67865 | 1012 ft | 169 kts | 179° |
| 2026-05-04 22:57 | 30.17501 | -97.67740 | 1721 ft | 182 kts | 166° |
| 2026-05-04 22:58 | 30.16181 | -97.67449 | 2170 ft | 205 kts | 186° |
| 2026-05-04 22:58 | 30.14840 | -97.68165 | 2623 ft | 232 kts | 223° |
| 2026-05-04 22:58 | 30.14141 | -97.69928 | 3244 ft | 258 kts | 262° |
| 2026-05-04 22:58 | 30.14536 | -97.71993 | 4096 ft | 276 kts | 296° |
| 2026-05-04 22:59 | 30.15939 | -97.73552 | 5003 ft | 290 kts | 331° |
| 2026-05-04 22:59 | 30.17879 | -97.74181 | 5989 ft | 292 kts | 350° |
| 2026-05-04 22:59 | 30.19903 | -97.74336 | 6977 ft | 290 kts | 355° |
| 2026-05-04 22:59 | 30.21922 | -97.74408 | 7873 ft | 290 kts | 355° |
| 2026-05-04 23:00 | 30.23934 | -97.74554 | 8720 ft | 290 kts | 352° |
| 2026-05-04 23:00 | 30.25943 | -97.74816 | 9613 ft | 291 kts | 348° |
| 2026-05-04 23:00 | 30.27965 | -97.75176 | 10261 ft | 303 kts | 346° |
| 2026-05-04 23:00 | 30.30121 | -97.75639 | 10535 ft | 326 kts | 345° |
| 2026-05-04 23:01 | 30.32398 | -97.76168 | 10957 ft | 339 kts | 344° |
| 2026-05-04 23:01 | 30.34724 | -97.76719 | 11661 ft | 343 kts | 344° |
| 2026-05-04 23:01 | 30.37069 | -97.77275 | 12419 ft | 345 kts | 344° |
| 2026-05-04 23:01 | 30.39425 | -97.77827 | 13181 ft | 346 kts | 343° |
| 2026-05-04 23:02 | 30.41760 | -97.78373 | 13957 ft | 348 kts | 343° |
| 2026-05-04 23:02 | 30.44141 | -97.78929 | 14655 ft | 350 kts | 343° |
| 2026-05-04 23:02 | 30.46533 | -97.79488 | 15317 ft | 351 kts | 343° |
| 2026-05-04 23:02 | 30.48932 | -97.80049 | 15964 ft | 353 kts | 343° |
| 2026-05-04 23:03 | 30.51346 | -97.80615 | 16611 ft | 355 kts | 343° |
| 2026-05-04 23:03 | 30.53773 | -97.81182 | 17252 ft | 356 kts | 343° |
| 2026-05-04 23:03 | 30.56209 | -97.81753 | 17874 ft | 358 kts | 343° |
| 2026-05-04 23:03 | 30.58659 | -97.82326 | 18442 ft | 360 kts | 343° |
| 2026-05-04 23:04 | 30.61129 | -97.82903 | 18930 ft | 363 kts | 342° |
| 2026-05-04 23:04 | 30.63610 | -97.83483 | 19420 ft | 365 kts | 342° |
| 2026-05-04 23:04 | 30.66102 | -97.84065 | 19920 ft | 367 kts | 342° |
| 2026-05-04 23:04 | 30.68612 | -97.84652 | 20418 ft | 369 kts | 341° |
| 2026-05-04 23:05 | 30.71137 | -97.85246 | 20917 ft | 371 kts | 341° |
| 2026-05-04 23:05 | 30.73678 | -97.85850 | 21395 ft | 373 kts | 339° |
| 2026-05-04 23:05 | 30.76148 | -97.86697 | 21788 ft | 371 kts | 334° |
| 2026-05-04 23:05 | 30.78607 | -97.87611 | 21881 ft | 372 kts | 334° |
| 2026-05-04 23:06 | 30.81085 | -97.88537 | 21894 ft | 375 kts | 334° |
| 2026-05-04 23:06 | 30.83570 | -97.89463 | 21887 ft | 375 kts | 335° |
| 2026-05-04 23:06 | 30.86058 | -97.90387 | 21880 ft | 375 kts | 335° |
| 2026-05-04 23:06 | 30.88544 | -97.91311 | 21878 ft | 375 kts | 335° |
| 2026-05-04 23:07 | 30.90989 | -97.92330 | 21874 ft | 370 kts | 328° |
| 2026-05-04 23:07 | 30.93285 | -97.93657 | 21876 ft | 368 kts | 327° |
| 2026-05-04 23:07 | 30.95569 | -97.95001 | 21860 ft | 368 kts | 326° |
| 2026-05-04 23:07 | 30.97857 | -97.96350 | 21860 ft | 368 kts | 326° |
| 2026-05-04 23:08 | 31.00141 | -97.97700 | 21872 ft | 368 kts | 327° |
| 2026-05-04 23:08 | 31.02426 | -97.99048 | 21874 ft | 368 kts | 327° |
| 2026-05-04 23:08 | 31.04682 | -98.00375 | 21876 ft | 368 kts | 327° |
| 2026-05-04 23:08 | 31.06969 | -98.01717 | 21888 ft | 368 kts | 327° |
| 2026-05-04 23:09 | 31.09253 | -98.03058 | 21891 ft | 367 kts | 327° |
| 2026-05-04 23:09 | 31.11535 | -98.04404 | 21891 ft | 367 kts | 326° |
| 2026-05-04 23:09 | 31.13819 | -98.05754 | 21890 ft | 367 kts | 327° |
| 2026-05-04 23:09 | 31.16101 | -98.07096 | 21888 ft | 368 kts | 328° |
| 2026-05-04 23:10 | 31.18537 | -98.08120 | 21883 ft | 377 kts | 338° |
| 2026-05-04 23:10 | 31.21112 | -98.08791 | 21882 ft | 379 kts | 340° |
| 2026-05-04 23:10 | 31.23691 | -98.09442 | 21879 ft | 379 kts | 340° |
| 2026-05-04 23:10 | 31.26275 | -98.10090 | 21877 ft | 379 kts | 340° |
| 2026-05-04 23:11 | 31.28858 | -98.10742 | 21892 ft | 380 kts | 340° |
| 2026-05-04 23:11 | 31.31446 | -98.11397 | 21882 ft | 380 kts | 340° |
| 2026-05-04 23:11 | 31.34029 | -98.12056 | 21875 ft | 380 kts | 340° |
| 2026-05-04 23:11 | 31.36584 | -98.12708 | 21867 ft | 380 kts | 340° |
| 2026-05-04 23:12 | 31.39168 | -98.13365 | 21860 ft | 381 kts | 341° |
| 2026-05-04 23:12 | 31.41875 | -98.13684 | 21853 ft | 392 kts | 352° |
| 2026-05-04 23:12 | 31.44593 | -98.13412 | 21852 ft | 400 kts | 358° |
| 2026-05-04 23:12 | 31.47361 | -98.12989 | 21850 ft | 400 kts | 358° |
| 2026-05-04 23:13 | 31.50126 | -98.12568 | 21845 ft | 400 kts | 358° |
| 2026-05-04 23:13 | 31.52886 | -98.12151 | 21843 ft | 400 kts | 358° |
| 2026-05-04 23:13 | 31.55651 | -98.11733 | 21856 ft | 401 kts | 358° |
| 2026-05-04 23:13 | 31.58425 | -98.11315 | 21849 ft | 401 kts | 358° |
| 2026-05-04 23:14 | 31.61195 | -98.10898 | 21835 ft | 401 kts | 358° |
| 2026-05-04 23:14 | 31.63961 | -98.10350 | 21828 ft | 409 kts | 5° |
| 2026-05-04 23:14 | 31.66677 | -98.09230 | 21868 ft | 421 kts | 16° |
| 2026-05-04 23:14 | 31.69275 | -98.07545 | 21867 ft | 427 kts | 21° |
| 2026-05-04 23:15 | 31.71837 | -98.05775 | 21864 ft | 428 kts | 21° |
| 2026-05-04 23:15 | 31.74377 | -98.04022 | 21859 ft | 428 kts | 21° |
| 2026-05-04 23:15 | 31.76944 | -98.02255 | 21854 ft | 427 kts | 21° |
| 2026-05-04 23:15 | 31.79515 | -98.00492 | 21849 ft | 427 kts | 21° |
| 2026-05-04 23:16 | 31.82083 | -97.98735 | 21842 ft | 427 kts | 21° |
| 2026-05-04 23:16 | 31.84651 | -97.96975 | 21856 ft | 427 kts | 21° |
| 2026-05-04 23:16 | 31.87222 | -97.95214 | 21860 ft | 426 kts | 21° |
| 2026-05-04 23:16 | 31.89794 | -97.93484 | 21854 ft | 424 kts | 20° |
| 2026-05-04 23:17 | 31.92361 | -97.91789 | 21846 ft | 423 kts | 20° |
| 2026-05-04 23:17 | 31.94928 | -97.90111 | 21831 ft | 422 kts | 20° |
| 2026-05-04 23:17 | 31.97503 | -97.88432 | 21838 ft | 421 kts | 20° |
| 2026-05-04 23:17 | 32.00034 | -97.86777 | 21840 ft | 421 kts | 20° |
| 2026-05-04 23:18 | 32.02587 | -97.85096 | 21838 ft | 421 kts | 20° |
| 2026-05-04 23:18 | 32.05140 | -97.83405 | 21838 ft | 421 kts | 20° |
| 2026-05-04 23:18 | 32.07688 | -97.81711 | 21837 ft | 420 kts | 20° |
| 2026-05-04 23:18 | 32.10235 | -97.80019 | 21830 ft | 420 kts | 20° |
| 2026-05-04 23:19 | 32.12780 | -97.78327 | 21851 ft | 420 kts | 20° |
| 2026-05-04 23:19 | 32.15319 | -97.76636 | 21845 ft | 418 kts | 20° |
| 2026-05-04 23:19 | 32.17808 | -97.74973 | 21674 ft | 405 kts | 20° |
| 2026-05-04 23:19 | 32.20243 | -97.73335 | 21233 ft | 399 kts | 20° |
| 2026-05-04 23:20 | 32.22648 | -97.71724 | 20714 ft | 396 kts | 20° |
| 2026-05-04 23:20 | 32.25050 | -97.70168 | 20194 ft | 392 kts | 19° |
| 2026-05-04 23:20 | 32.27471 | -97.68707 | 19875 ft | 390 kts | 18° |
| 2026-05-04 23:20 | 32.29910 | -97.67302 | 19790 ft | 389 kts | 17° |
| 2026-05-04 23:21 | 32.32355 | -97.65913 | 19806 ft | 390 kts | 17° |
| 2026-05-04 23:21 | 32.34800 | -97.64515 | 19803 ft | 387 kts | 17° |
| 2026-05-04 23:21 | 32.37169 | -97.63093 | 19803 ft | 389 kts | 22° |
| 2026-05-04 23:21 | 32.39389 | -97.61223 | 19640 ft | 395 kts | 33° |
| 2026-05-04 23:22 | 32.41405 | -97.58964 | 18884 ft | 404 kts | 37° |
| 2026-05-04 23:22 | 32.43459 | -97.56619 | 17831 ft | 417 kts | 38° |
| 2026-05-04 23:22 | 32.45579 | -97.54195 | 16611 ft | 429 kts | 39° |
| 2026-05-04 23:22 | 32.47755 | -97.51701 | 15463 ft | 440 kts | 39° |
| 2026-05-04 23:23 | 32.49963 | -97.49167 | 14652 ft | 440 kts | 40° |
| 2026-05-04 23:23 | 32.52150 | -97.46653 | 14009 ft | 437 kts | 40° |
| 2026-05-04 23:23 | 32.54319 | -97.44157 | 13335 ft | 433 kts | 40° |
| 2026-05-04 23:23 | 32.56449 | -97.41711 | 12637 ft | 429 kts | 40° |
| 2026-05-04 23:24 | 32.58567 | -97.39285 | 12337 ft | 415 kts | 40° |
| 2026-05-04 23:24 | 32.60598 | -97.36953 | 12235 ft | 397 kts | 40° |
| 2026-05-04 23:24 | 32.62529 | -97.34731 | 12259 ft | 376 kts | 40° |
| 2026-05-04 23:24 | 32.64364 | -97.32617 | 12259 ft | 359 kts | 40° |
| 2026-05-04 23:25 | 32.66114 | -97.30604 | 12258 ft | 343 kts | 39° |
| 2026-05-04 23:25 | 32.67790 | -97.28681 | 12261 ft | 328 kts | 39° |
| 2026-05-04 23:25 | 32.69395 | -97.26838 | 12255 ft | 314 kts | 39° |
| 2026-05-04 23:25 | 32.70936 | -97.25071 | 12243 ft | 301 kts | 39° |
| 2026-05-04 23:26 | 32.72412 | -97.23382 | 12243 ft | 288 kts | 38° |
| 2026-05-04 23:26 | 32.73826 | -97.21756 | 12244 ft | 279 kts | 38° |
| 2026-05-04 23:26 | 32.75212 | -97.20165 | 12172 ft | 275 kts | 38° |
| 2026-05-04 23:26 | 32.76124 | -97.19119 | 12008 ft | 274 kts | 38° |
| 2026-05-04 23:27 | 32.77610 | -97.17762 | 11727 ft | 265 kts | 20° |
| 2026-05-04 23:27 | 32.79329 | -97.17108 | 11260 ft | 260 kts | 359° |
| 2026-05-04 23:27 | 32.81726 | -97.17454 | 10317 ft | 272 kts | 341° |
| 2026-05-04 23:27 | 32.83625 | -97.17988 | 9537 ft | 289 kts | 341° |
| 2026-05-04 23:28 | 32.84970 | -97.18370 | 8931 ft | 300 kts | 342° |
| 2026-05-04 23:28 | 32.87061 | -97.18961 | 7995 ft | 317 kts | 342° |
| 2026-05-04 23:28 | 32.89261 | -97.19579 | 7027 ft | 332 kts | 342° |
| 2026-05-04 23:28 | 32.91562 | -97.20220 | 5997 ft | 347 kts | 343° |
| 2026-05-04 23:29 | 32.93956 | -97.20883 | 5078 ft | 356 kts | 342° |
| 2026-05-04 23:29 | 32.96347 | -97.21535 | 4739 ft | 347 kts | 343° |
| 2026-05-04 23:29 | 32.98654 | -97.22158 | 4579 ft | 333 kts | 343° |
| 2026-05-04 23:29 | 33.00833 | -97.22749 | 4508 ft | 316 kts | 342° |
| 2026-05-04 23:30 | 33.02909 | -97.23313 | 4519 ft | 296 kts | 342° |
| 2026-05-04 23:30 | 33.04862 | -97.23846 | 4524 ft | 279 kts | 342° |
| 2026-05-04 23:30 | 33.06717 | -97.24284 | 4522 ft | 267 kts | 352° |
| 2026-05-04 23:30 | 33.08472 | -97.23773 | 4526 ft | 260 kts | 33° |
| 2026-05-04 23:31 | 33.09598 | -97.22171 | 4530 ft | 254 kts | 74° |
| 2026-05-04 23:31 | 33.09701 | -97.20155 | 4433 ft | 239 kts | 114° |
| 2026-05-04 23:31 | 33.08815 | -97.18640 | 4160 ft | 215 kts | 156° |
| 2026-05-04 23:31 | 33.07451 | -97.18171 | 3971 ft | 202 kts | 176° |
| 2026-05-04 23:32 | 33.06102 | -97.17881 | 3757 ft | 190 kts | 174° |
| 2026-05-04 23:32 | 33.04831 | -97.17589 | 3550 ft | 183 kts | 173° |
| 2026-05-04 23:32 | 33.03600 | -97.17308 | 3348 ft | 178 kts | 173° |
| 2026-05-04 23:32 | 33.02397 | -97.17033 | 3146 ft | 177 kts | 173° |
| 2026-05-04 23:33 | 33.01191 | -97.16758 | 2960 ft | 176 kts | 173° |
| 2026-05-04 23:33 | 33.00001 | -97.16451 | 2759 ft | 175 kts | 163° |
| 2026-05-04 23:33 | 32.98909 | -97.15847 | 2484 ft | 175 kts | 159° |
| 2026-05-04 23:33 | 32.97813 | -97.15221 | 2266 ft | 170 kts | 159° |
| 2026-05-04 23:34 | 32.96840 | -97.14384 | 2111 ft | 175 kts | 147° |
| 2026-05-04 23:34 | 32.95945 | -97.13456 | 1929 ft | 164 kts | 147° |
| 2026-05-04 23:34 | 32.95129 | -97.12609 | 1718 ft | 153 kts | 147° |
| 2026-05-04 23:34 | 32.94339 | -97.11796 | 1513 ft | 149 kts | 147° |
| 2026-05-04 23:35 | 32.93574 | -97.11007 | 1324 ft | 142 kts | 146° |
| 2026-05-04 23:35 | 32.92834 | -97.10248 | 1143 ft | 140 kts | 144° |
| 2026-05-04 23:35 | 32.92094 | -97.09485 | 945 ft | 142 kts | 146° |
| 2026-05-04 23:35 | 32.91351 | -97.08720 | 777 ft | 141 kts | 145° |
| 2026-05-04 23:36 | 32.90618 | -97.07966 | 607 ft | 136 kts | 142° |
| 2026-05-04 23:36 | 32.90035 | -97.07363 | 593 ft | 71 kts | 137° |
| 2026-05-04 23:36 | 32.89846 | -97.07169 | 594 ft | 24 kts | 140° |
| 2026-05-04 23:36 | 32.89861 | -97.07001 | 596 ft | 32 kts | 72° |
| 2026-05-04 23:37 | 32.89789 | -97.06857 | 595 ft | 18 kts | 139° |
| 2026-05-04 23:37 | 32.89690 | -97.06756 | 595 ft | 18 kts | 140° |
| 2026-05-04 23:37 | 32.89560 | -97.06628 | 592 ft | 34 kts | 136° |
| 2026-05-04 23:37 | 32.89437 | -97.06346 | 591 ft | 40 kts | 117° |
| 2026-05-04 23:38 | 32.89219 | -97.06105 | 592 ft | 45 kts | 141° |
| 2026-05-04 23:38 | 32.89043 | -97.05882 | 597 ft | 34 kts | 101° |
| 2026-05-04 23:38 | 32.89046 | -97.05565 | 598 ft | 42 kts | 91° |
| 2026-05-04 23:38 | 32.89042 | -97.05201 | 588 ft | 40 kts | 90° |
| 2026-05-04 23:39 | 32.89041 | -97.04887 | 591 ft | 31 kts | 87° |
| 2026-05-04 23:39 | 32.89121 | -97.04723 | 594 ft | 23 kts | 13° |
| 2026-05-04 23:39 | 32.89272 | -97.04703 | 595 ft | 21 kts | 1° |
| 2026-05-04 23:39 | 32.89410 | -97.04702 | 596 ft | 19 kts | 0° |
| 2026-05-04 23:40 | 32.89504 | -97.04703 | 597 ft | 0 kts | 359° |
| 2026-05-04 23:40 | 32.89527 | -97.04702 | 597 ft | 15 kts | 2° |
| 2026-05-04 23:40 | 32.89594 | -97.04623 | 598 ft | 11 kts | 85° |
| 2026-05-04 23:40 | 32.89595 | -97.04565 | 598 ft | 1 kts | 89° |
| 2026-05-04 23:41 | 32.89595 | -97.04563 | 598 ft | 0 kts | 89° |